CJE7 weather

Ashern Airport
Ashern, Manitoba, Canada

Public forecast

Using degrees Celsius for public forecast. Weather courtesy of forecast.io.

METAR (pilot weather report)

Closest report is Dauphin Barker Airport, 64.9 nm (120.2 km) W. Retrieved 2019/07/23 14:00 UTC (34 minutes ago):

CYDN 231400Z AUTO 26005KT 9SM CLR 21/16 A3020 RMK SLP231 DENSITY ALT 1500FT

TAF (pilot weather forecast)

Closest forecast is Dauphin Barker Airport, 64.9 nm (120.2 km) W. Retrieved 2019/07/23 12:39 UTC (2 hours ago):

TAF CYDN 231138Z 2312/2324 26008KT P6SM SKC RMK FCST BASED ON AUTO OBS. NXT FCST BY 231800Z